Time;durP1;ratioP1;P1;durP2;ratioP2;P2;SDS_P1;SDS_P2;PMS_P1;PMS_P2;Temp;Humidity;BMP_temperature;BMP_pressure;BME280_temperature;BME280_humidity;BME280_pressure;Samples;Min_cycle;Max_cycle;Signal;HPM_P1;HPM_P2
2021/09/27 00:01:08;;;;;;;14.20;7.40;;;;;;;20.39;100.00;100924.69;4995057;28;20049;-65
2021/09/27 00:03:34;;;;;;;11.50;6.93;;;;;;;20.39;100.00;100915.69;5006570;28;20044;-65
2021/09/27 00:06:00;;;;;;;11.85;6.63;;;;;;;20.39;100.00;100923.91;5012870;28;20040;-65
2021/09/27 00:08:27;;;;;;;19.70;6.80;;;;;;;20.40;100.00;100928.19;5007184;28;20022;-65
2021/09/27 00:10:55;;;;;;;12.73;7.43;;;;;;;20.47;100.00;100925.34;5011923;28;20509;-64
2021/09/27 00:13:22;;;;;;;11.32;6.53;;;;;;;20.45;100.00;100927.72;5012416;28;20121;-65
2021/09/27 00:15:50;;;;;;;11.98;6.55;;;;;;;20.42;100.00;100928.56;5012409;28;20042;-64
2021/09/27 00:18:17;;;;;;;11.90;6.45;;;;;;;20.37;100.00;100927.06;5007568;28;20096;-65
2021/09/27 00:20:46;;;;;;;12.20;6.55;;;;;;;20.35;100.00;100921.22;5009447;28;20029;-64
2021/09/27 00:23:13;;;;;;;12.80;6.90;;;;;;;20.35;100.00;100913.03;5011331;28;20026;-64
2021/09/27 00:25:39;;;;;;;11.43;6.72;;;;;;;20.35;100.00;100907.53;5012385;28;20084;-65
2021/09/27 00:28:05;;;;;;;10.93;6.40;;;;;;;20.34;100.00;100907.97;5007589;28;20025;-64
2021/09/27 00:30:31;;;;;;;12.25;6.88;;;;;;;20.32;100.00;100907.59;5011816;28;20037;-65
2021/09/27 00:32:57;;;;;;;9.80;6.10;;;;;;;20.34;100.00;100899.75;5012060;28;20104;-64
2021/09/27 00:35:27;;;;;;;12.90;6.00;;;;;;;20.32;100.00;100885.72;4987124;28;20034;-65
2021/09/27 00:37:53;;;;;;;11.27;6.22;;;;;;;20.29;100.00;100887.31;5006228;28;20033;-65
2021/09/27 00:42:47;;;;;;;12.32;6.32;;;;;;;20.24;100.00;100879.59;5007273;28;20056;-66
2021/09/27 00:45:15;;;;;;;11.18;6.88;;;;;;;20.21;100.00;100885.88;5009325;28;20033;-66
2021/09/27 00:47:42;;;;;;;10.32;6.20;;;;;;;20.20;100.00;100883.56;5012206;28;20046;-66
2021/09/27 00:50:10;;;;;;;10.27;6.45;;;;;;;20.19;100.00;100868.34;5011655;28;20041;-66
2021/09/27 00:52:37;;;;;;;14.00;6.47;;;;;;;20.21;100.00;100869.47;5011264;28;20109;-67
2021/09/27 00:55:05;;;;;;;15.10;6.93;;;;;;;20.21;100.00;100877.66;5008421;28;20124;-67
2021/09/27 00:57:30;;;;;;;11.02;6.63;;;;;;;20.24;100.00;100882.31;5009900;28;20038;-66
2021/09/27 00:59:56;;;;;;;10.85;6.55;;;;;;;20.24;100.00;100885.06;5012371;28;20030;-66
2021/09/27 01:02:23;;;;;;;11.35;6.38;;;;;;;20.28;100.00;100876.78;4997091;28;20085;-66
2021/09/27 01:04:49;;;;;;;12.48;6.55;;;;;;;20.27;100.00;100876.00;5010463;28;20034;-67
2021/09/27 01:07:17;;;;;;;9.85;6.25;;;;;;;20.21;100.00;100865.97;5011226;28;20034;-66
2021/09/27 01:09:51;;;;;;;13.80;6.57;;;;;;;20.20;100.00;100864.41;5003853;28;20033;-67
2021/09/27 01:12:27;;;;;;;11.65;6.43;;;;;;;20.20;100.00;100851.50;5010567;28;20436;-66
2021/09/27 01:14:52;;;;;;;11.98;6.88;;;;;;;20.20;100.00;100854.25;5006120;28;20030;-66
2021/09/27 01:17:27;;;;;;;11.63;6.85;;;;;;;20.15;100.00;100849.19;5012365;28;20030;-66
2021/09/27 01:20:11;;;;;;;11.45;6.30;;;;;;;20.08;100.00;100854.78;5011045;28;20453;-66
2021/09/27 01:22:55;;;;;;;12.65;6.85;;;;;;;20.12;100.00;100854.72;4997022;28;20060;-66
2021/09/27 01:25:46;;;;;;;11.25;6.65;;;;;;;20.03;100.00;100846.28;5010421;28;20025;-66
2021/09/27 01:28:21;;;;;;;11.30;6.72;;;;;;;20.02;100.00;100842.00;5011645;28;20030;-67
2021/09/27 01:31:20;;;;;;;11.30;6.57;;;;;;;20.01;100.00;100840.44;5007000;28;20037;-66
2021/09/27 01:34:04;;;;;;;11.43;6.63;;;;;;;20.03;100.00;100841.59;5005278;28;20529;-66
2021/09/27 01:37:00;;;;;;;11.70;6.68;;;;;;;19.98;100.00;100849.47;4997732;28;20038;-66
2021/09/27 01:39:36;;;;;;;12.27;6.30;;;;;;;20.05;100.00;100849.38;5010278;28;20026;-66
2021/09/27 01:42:18;;;;;;;11.27;6.45;;;;;;;20.08;100.00;100851.28;5009836;28;20033;-66
2021/09/27 01:44:58;;;;;;;11.02;6.78;;;;;;;20.08;100.00;100854.00;5011775;28;20473;-66
2021/09/27 01:47:32;;;;;;;13.50;6.10;;;;;;;20.07;100.00;100847.78;5007957;28;20038;-66
2021/09/27 01:50:08;;;;;;;10.93;6.35;;;;;;;20.06;100.00;100846.22;5010251;28;20308;-67
2021/09/27 01:52:42;;;;;;;12.45;6.55;;;;;;;20.02;100.00;100847.44;5010474;28;20040;-67
2021/09/27 01:55:16;;;;;;;11.20;6.22;;;;;;;20.06;100.00;100848.19;5010977;28;20026;-67
2021/09/27 01:57:57;;;;;;;10.57;6.32;;;;;;;20.02;100.00;100840.03;5004409;28;20040;-66
2021/09/27 02:00:28;;;;;;;12.45;7.00;;;;;;;20.07;100.00;100844.28;5008439;28;20029;-66
2021/09/27 02:02:59;;;;;;;12.70;6.65;;;;;;;20.07;100.00;100857.94;5035267;28;20056;-66
2021/09/27 02:05:36;;;;;;;10.30;6.53;;;;;;;20.07;100.00;100856.00;5026039;28;20045;-65
2021/09/27 02:08:15;;;;;;;13.23;6.80;;;;;;;20.09;100.00;100870.00;4991950;28;20042;-66
2021/09/27 02:10:48;;;;;;;14.05;6.75;;;;;;;20.14;100.00;100880.50;5004947;28;20564;-66
2021/09/27 02:13:31;;;;;;;13.43;6.95;;;;;;;20.10;100.00;100873.50;5010117;28;20371;-66
2021/09/27 02:16:06;;;;;;;13.70;7.03;;;;;;;20.10;100.00;100881.72;5007049;28;20053;-66
2021/09/27 02:18:40;;;;;;;13.07;7.05;;;;;;;20.09;100.00;100891.88;5005070;28;20057;-66
2021/09/27 02:21:14;;;;;;;12.07;6.75;;;;;;;20.09;100.00;100878.19;5008056;28;20048;-66
2021/09/27 02:24:16;;;;;;;15.18;7.18;;;;;;;19.97;100.00;100870.59;5010763;28;20033;-66
2021/09/27 02:26:43;;;;;;;11.77;6.25;;;;;;;20.00;100.00;100879.91;4999777;28;20426;-66
2021/09/27 02:29:09;;;;;;;13.68;7.03;;;;;;;20.02;100.00;100883.00;5010044;28;20026;-66
2021/09/27 02:31:43;;;;;;;13.65;6.68;;;;;;;20.01;100.00;100886.94;5009747;28;20052;-66
2021/09/27 02:34:32;;;;;;;13.38;6.55;;;;;;;20.00;100.00;100901.78;5010505;28;20034;-66
2021/09/27 02:37:03;;;;;;;18.30;7.80;;;;;;;20.01;100.00;100903.34;5001542;28;20046;-66
2021/09/27 02:39:38;;;;;;;15.27;7.07;;;;;;;19.96;100.00;100895.59;5041880;28;20034;-66
2021/09/27 02:42:12;;;;;;;12.73;7.28;;;;;;;19.93;100.00;100897.22;5009645;28;20749;-66
2021/09/27 02:44:38;;;;;;;15.30;7.40;;;;;;;19.93;100.00;100890.97;5013319;28;20037;-66
2021/09/27 02:47:07;;;;;;;14.02;7.35;;;;;;;19.90;100.00;100903.47;5007475;28;20084;-66
2021/09/27 02:49:43;;;;;;;16.45;7.45;;;;;;;19.90;100.00;100897.25;5010720;28;20490;-66
2021/09/27 02:52:10;;;;;;;13.48;7.38;;;;;;;19.89;100.00;100898.44;5007787;28;20540;-66
2021/09/27 02:54:41;;;;;;;15.43;7.78;;;;;;;19.91;100.00;100910.53;5003210;28;20026;-66
2021/09/27 02:57:06;;;;;;;12.80;6.95;;;;;;;19.88;100.00;100916.78;5007846;28;20030;-66
2021/09/27 02:59:58;;;;;;;13.00;6.93;;;;;;;19.91;100.00;100902.31;5010336;28;20025;-66
2021/09/27 03:02:45;;;;;;;15.00;6.72;;;;;;;19.99;100.00;100903.00;4984641;28;20119;-66
2021/09/27 03:05:29;;;;;;;14.85;7.03;;;;;;;19.92;100.00;100901.13;5010061;28;20030;-66
2021/09/27 03:08:28;;;;;;;12.40;6.78;;;;;;;19.85;100.00;100903.97;5002809;28;20042;-66
2021/09/27 03:11:35;;;;;;;12.38;6.55;;;;;;;19.84;100.00;100894.19;5007845;28;20044;-65
2021/09/27 03:14:30;;;;;;;11.43;6.05;;;;;;;19.78;100.00;100907.53;4963726;28;20050;-66
2021/09/27 03:17:10;;;;;;;12.48;5.72;;;;;;;19.82;100.00;100901.28;4950326;28;20047;-66
2021/09/27 03:20:06;;;;;;;14.23;6.30;;;;;;;19.82;100.00;100896.59;4952608;28;20179;-66
2021/09/27 03:22:49;;;;;;;10.98;5.85;;;;;;;19.84;100.00;100896.16;4943822;28;20041;-66
2021/09/27 03:25:42;;;;;;;12.57;6.22;;;;;;;19.80;100.00;100894.25;4962921;28;20054;-66
2021/09/27 03:28:31;;;;;;;13.70;6.68;;;;;;;19.86;100.00;100902.00;4953656;28;20054;-66
2021/09/27 03:31:09;;;;;;;11.55;6.43;;;;;;;19.90;100.00;100910.94;4945027;28;20047;-66
2021/09/27 03:33:43;;;;;;;13.98;6.80;;;;;;;19.88;100.00;100905.09;4955003;28;20090;-66
2021/09/27 03:36:16;;;;;;;17.30;7.15;;;;;;;19.77;100.00;100905.22;4953019;28;20035;-66
2021/09/27 03:38:51;;;;;;;15.25;6.72;;;;;;;19.77;100.00;100897.81;4952413;28;20057;-66
2021/09/27 03:41:23;;;;;;;13.02;6.45;;;;;;;19.64;100.00;100899.56;4957792;28;20050;-66
2021/09/27 03:44:07;;;;;;;14.38;6.75;;;;;;;19.65;100.00;100892.88;4978626;28;20039;-66
2021/09/27 03:46:42;;;;;;;13.90;6.72;;;;;;;19.69;100.00;100910.03;5012333;28;20390;-66
2021/09/27 03:49:21;;;;;;;13.98;6.50;;;;;;;19.71;100.00;100907.66;5008764;28;20430;-66
2021/09/27 03:51:55;;;;;;;12.63;6.53;;;;;;;19.76;100.00;100900.97;5001705;28;20558;-66
2021/09/27 03:54:23;;;;;;;12.35;6.22;;;;;;;19.74;100.00;100890.41;5012853;28;20049;-66
2021/09/27 03:56:59;;;;;;;10.27;6.07;;;;;;;19.75;100.00;100891.19;5013298;28;20026;-66
2021/09/27 03:59:47;;;;;;;12.43;6.22;;;;;;;19.71;100.00;100893.19;5003885;28;20033;-66
2021/09/27 04:02:19;;;;;;;13.10;6.85;;;;;;;19.73;100.00;100888.09;5011368;28;20457;-65
2021/09/27 04:04:56;;;;;;;13.18;6.18;;;;;;;19.73;100.00;100879.91;5012797;28;20523;-66
2021/09/27 04:07:47;;;;;;;10.52;5.50;;;;;;;19.67;100.00;100882.31;5009674;28;20049;-65
2021/09/27 04:10:42;;;;;;;12.57;5.97;;;;;;;19.67;100.00;100876.06;5007543;28;20029;-65
2021/09/27 04:13:52;;;;;;;13.15;5.78;;;;;;;19.68;100.00;100877.63;5007601;28;20037;-66
2021/09/27 04:16:46;;;;;;;10.65;5.68;;;;;;;19.64;100.00;100866.75;4976992;28;20037;-66
2021/09/27 04:19:23;;;;;;;9.93;5.13;;;;;;;19.71;100.00;100865.88;5012483;28;20091;-65
2021/09/27 04:22:06;;;;;;;10.20;5.40;;;;;;;19.64;100.00;100874.19;5011110;28;20501;-66
2021/09/27 04:24:53;;;;;;;12.38;6.00;;;;;;;19.65;100.00;100867.50;5004734;28;20096;-65
2021/09/27 04:27:25;;;;;;;11.93;5.68;;;;;;;19.69;100.00;100865.50;5010860;28;20477;-66
2021/09/27 04:30:09;;;;;;;11.02;5.43;;;;;;;19.70;100.00;100856.88;5012587;28;20049;-66
2021/09/27 04:33:33;;;;;;;9.32;5.25;;;;;;;19.63;100.00;100857.00;5008732;28;20034;-65
2021/09/27 04:36:13;;;;;;;9.43;5.55;;;;;;;19.65;100.00;100856.56;4969159;28;20058;-65
2021/09/27 04:38:40;;;;;;;9.05;5.10;;;;;;;19.67;100.00;100851.47;4970722;28;20039;-65
2021/09/27 04:41:20;;;;;;;11.02;5.65;;;;;;;19.61;100.00;100851.16;4996121;28;20045;-65
2021/09/27 04:44:03;;;;;;;8.40;4.68;;;;;;;19.62;100.00;100844.53;5011621;28;20056;-65
2021/09/27 04:46:47;;;;;;;10.52;5.55;;;;;;;19.56;100.00;100845.38;5002521;28;20030;-65
2021/09/27 04:49:54;;;;;;;9.30;5.53;;;;;;;19.53;100.00;100844.25;5002778;28;20038;-65
2021/09/27 04:52:31;;;;;;;9.57;5.25;;;;;;;19.59;100.00;100850.00;5011489;28;20054;-65
2021/09/27 04:55:20;;;;;;;10.38;5.25;;;;;;;19.56;100.00;100854.38;5005548;28;20450;-65
2021/09/27 04:58:04;;;;;;;12.82;6.00;;;;;;;19.58;100.00;100851.22;5009585;28;20034;-66
2021/09/27 05:00:35;;;;;;;9.95;4.97;;;;;;;19.62;100.00;100855.47;5006404;28;20042;-66
2021/09/27 05:03:09;;;;;;;;;;;;;;;19.48;100.00;100836.50;5008202;28;20033;-65
2021/09/27 05:06:17;;;;;;;11.68;5.93;;;;;;;19.52;100.00;100850.13;5008165;28;19913;-66
2021/09/27 05:09:03;;;;;;;12.98;6.72;;;;;;;19.60;100.00;100846.91;5005880;28;20030;-65
2021/09/27 05:11:32;;;;;;;10.95;6.05;;;;;;;19.62;100.00;100850.00;5009577;28;20050;-65
2021/09/27 05:14:32;;;;;;;12.25;6.40;;;;;;;19.59;100.00;100847.28;5010696;28;20038;-66
2021/09/27 05:17:23;;;;;;;11.10;6.00;;;;;;;19.59;100.00;100839.88;5008813;28;20130;-66
2021/09/27 05:20:10;;;;;;;13.30;6.43;;;;;;;19.57;100.00;100847.69;5000050;28;20380;-65
2021/09/27 05:22:54;;;;;;;10.57;5.82;;;;;;;19.50;100.00;100845.06;5001648;28;20308;-66
2021/09/27 05:25:38;;;;;;;11.15;5.93;;;;;;;19.49;100.00;100843.50;5010826;28;20046;-66
2021/09/27 05:28:27;;;;;;;11.23;6.15;;;;;;;19.55;100.00;100841.88;5010348;28;20500;-65
2021/09/27 05:31:10;;;;;;;11.68;6.38;;;;;;;19.58;100.00;100832.88;5009550;28;20462;-66
2021/09/27 05:33:57;;;;;;;11.93;6.82;;;;;;;19.49;100.00;100829.84;5009485;28;20033;-65
2021/09/27 05:36:38;;;;;;;12.85;6.60;;;;;;;19.57;100.00;100844.19;5010027;28;20096;-65
2021/09/27 05:39:21;;;;;;;11.95;6.40;;;;;;;19.57;100.00;100842.25;5000504;28;20049;-66
2021/09/27 05:41:50;;;;;;;11.13;6.22;;;;;;;19.58;100.00;100832.09;5007641;28;20056;-66
2021/09/27 05:44:43;;;;;;;10.98;6.05;;;;;;;19.52;100.00;100839.97;5003013;28;20507;-66
2021/09/27 05:47:19;;;;;;;15.32;6.03;;;;;;;19.57;100.00;100836.00;4997891;28;20064;-65
2021/09/27 05:50:05;;;;;;;12.68;5.70;;;;;;;19.57;100.00;100842.25;4993642;28;20521;-66
2021/09/27 05:52:57;;;;;;;14.88;6.93;;;;;;;19.60;100.00;100846.13;5010176;28;20034;-66
2021/09/27 05:55:42;;;;;;;16.92;6.50;;;;;;;19.58;100.00;100843.81;5011032;28;20026;-66
2021/09/27 05:58:32;;;;;;;14.57;7.05;;;;;;;19.63;100.00;100837.88;5010247;28;20116;-66
2021/09/27 06:01:24;;;;;;;14.32;6.70;;;;;;;19.68;100.00;100848.34;5005701;28;20030;-66
2021/09/27 06:04:11;;;;;;;16.05;7.30;;;;;;;19.67;100.00;100844.06;5005984;28;20491;-66
2021/09/27 06:06:53;;;;;;;18.10;7.22;;;;;;;19.68;100.00;100842.09;5004780;28;20509;-66
2021/09/27 06:09:27;;;;;;;15.75;6.50;;;;;;;19.69;100.00;100833.50;5008730;28;20256;-66
2021/09/27 06:12:02;;;;;;;14.38;7.40;;;;;;;19.68;100.00;100825.72;5008519;28;20076;-66
2021/09/27 06:14:30;;;;;;;13.95;7.03;;;;;;;19.72;100.00;100826.44;5011120;28;20034;-66
2021/09/27 06:17:14;;;;;;;13.18;6.57;;;;;;;19.71;100.00;100822.91;5011106;28;20045;-66
2021/09/27 06:19:44;;;;;;;15.00;7.30;;;;;;;19.76;100.00;100830.66;5008173;28;20042;-66
2021/09/27 06:22:34;;;;;;;15.73;6.50;;;;;;;19.71;100.00;100824.88;5009774;28;20509;-66
2021/09/27 06:25:37;;;;;;;14.18;6.88;;;;;;;19.69;100.00;100821.78;5000176;28;20033;-66
2021/09/27 06:28:14;;;;;;;15.80;7.43;;;;;;;19.70;100.00;100831.53;5000180;28;20605;-66
2021/09/27 06:30:52;;;;;;;21.13;8.45;;;;;;;19.72;100.00;100829.91;5003628;28;20108;-66
2021/09/27 06:33:39;;;;;;;15.82;6.72;;;;;;;19.70;100.00;100831.53;5007688;28;20026;-66
2021/09/27 06:36:14;;;;;;;15.15;7.38;;;;;;;19.69;100.00;100833.50;5006652;28;20045;-66
2021/09/27 06:38:40;;;;;;;18.92;7.22;;;;;;;19.69;100.00;100824.50;5042537;28;20052;-66
2021/09/27 06:41:17;;;;;;;15.88;7.32;;;;;;;19.68;100.00;100831.19;5014681;22;20116;-62
2021/09/27 06:43:44;;;;;;;17.33;7.85;;;;;;;19.72;100.00;100832.66;4987118;28;20038;-62
2021/09/27 06:46:09;;;;;;;15.63;7.55;;;;;;;19.71;100.00;100831.13;5001926;28;20049;-62
2021/09/27 06:48:35;;;;;;;17.13;7.65;;;;;;;19.71;100.00;100836.59;5010391;28;20149;-62
2021/09/27 06:51:01;;;;;;;16.20;8.20;;;;;;;19.72;100.00;100829.91;5001166;28;20038;-62
2021/09/27 06:53:28;;;;;;;18.63;7.82;;;;;;;19.69;100.00;100838.16;4987777;28;20041;-62
2021/09/27 06:55:54;;;;;;;17.70;8.73;;;;;;;19.74;100.00;100835.75;4990634;28;20041;-63
2021/09/27 06:58:23;;;;;;;17.33;8.52;;;;;;;19.74;100.00;100832.25;4992894;28;20026;-62
2021/09/27 07:00:49;;;;;;;18.90;7.53;;;;;;;19.74;100.00;100830.28;4991430;28;20034;-62
2021/09/27 07:03:15;;;;;;;16.58;7.72;;;;;;;19.74;100.00;100840.47;4994087;28;20042;-62
2021/09/27 07:05:40;;;;;;;16.73;7.97;;;;;;;19.77;100.00;100832.22;4994849;28;20034;-61
2021/09/27 07:08:06;;;;;;;18.63;7.93;;;;;;;19.73;100.00;100833.44;4994953;28;20092;-61
2021/09/27 07:10:31;;;;;;;19.02;8.88;;;;;;;19.71;100.00;100835.81;4990581;28;20026;-62
2021/09/27 07:12:57;;;;;;;17.60;8.35;;;;;;;19.75;100.00;100837.31;4993858;28;20088;-62
2021/09/27 07:15:22;;;;;;;19.88;9.30;;;;;;;19.74;100.00;100835.00;4994809;28;20034;-62
2021/09/27 07:17:48;;;;;;;17.95;7.60;;;;;;;19.70;100.00;100835.03;4991702;28;20038;-62
2021/09/27 07:20:20;;;;;;;16.60;8.57;;;;;;;19.69;100.00;100836.22;4987314;28;20097;-62
2021/09/27 07:22:46;;;;;;;17.25;7.93;;;;;;;19.76;100.00;100838.84;4970206;28;20558;-62
2021/09/27 07:25:14;;;;;;;19.67;8.38;;;;;;;19.75;100.00;100833.78;4991460;28;20290;-62
2021/09/27 07:27:40;;;;;;;17.70;8.00;;;;;;;19.76;100.00;100841.56;4994043;28;20475;-61
2021/09/27 07:30:07;;;;;;;21.08;8.82;;;;;;;19.75;100.00;100842.78;4992873;28;20044;-62
2021/09/27 07:32:33;;;;;;;21.92;8.85;;;;;;;19.76;100.00;100841.56;4975524;28;20054;-60
2021/09/27 07:34:59;;;;;;;19.70;8.50;;;;;;;19.76;100.00;100843.56;4991281;28;20384;-62
2021/09/27 07:37:24;;;;;;;17.20;7.63;;;;;;;19.74;100.00;100852.16;4993400;28;20026;-62
2021/09/27 07:39:50;;;;;;;24.45;9.48;;;;;;;19.83;100.00;100859.06;4992396;28;20031;-63
2021/09/27 07:42:15;;;;;;;20.92;8.32;;;;;;;19.73;100.00;100850.63;4992022;28;20085;-60
2021/09/27 07:44:42;;;;;;;18.98;8.27;;;;;;;19.75;100.00;100837.31;4973776;28;20466;-61
2021/09/27 07:47:07;;;;;;;20.63;8.57;;;;;;;19.78;100.00;100838.44;4993391;28;20084;-62
2021/09/27 07:49:33;;;;;;;24.65;8.48;;;;;;;19.78;100.00;100836.47;4993917;28;20490;-62
2021/09/27 07:51:58;;;;;;;21.80;9.27;;;;;;;19.76;100.00;100844.31;4992321;28;20045;-63
2021/09/27 07:54:24;;;;;;;24.60;8.95;;;;;;;19.73;100.00;100833.44;4991591;28;20038;-61
2021/09/27 07:56:50;;;;;;;24.08;9.73;;;;;;;19.73;100.00;100833.44;4993975;28;20026;-62
2021/09/27 07:59:17;;;;;;;27.02;9.73;;;;;;;19.76;100.00;100844.31;4994002;28;20044;-62
2021/09/27 08:01:42;;;;;;;24.73;10.45;;;;;;;19.79;100.00;100843.50;4990496;28;20034;-61
2021/09/27 08:04:09;;;;;;;21.90;9.27;;;;;;;19.74;100.00;100841.22;4993403;28;20105;-62
2021/09/27 08:06:36;;;;;;;18.48;8.93;;;;;;;19.83;100.00;100853.59;4993709;28;20062;-62
2021/09/27 08:09:03;;;;;;;22.13;9.38;;;;;;;19.80;100.00;100838.81;4973372;28;20096;-62
2021/09/27 08:11:28;;;;;;;20.88;9.68;;;;;;;19.79;100.00;100846.25;4992402;28;20450;-62
2021/09/27 08:13:54;;;;;;;21.35;9.35;;;;;;;19.83;100.00;100842.66;4993434;28;20045;-61
2021/09/27 08:16:19;;;;;;;21.73;9.77;;;;;;;19.77;100.00;100847.81;4993662;28;20372;-62
2021/09/27 08:18:45;;;;;;;20.65;9.50;;;;;;;19.86;100.00;100847.31;4991198;28;20096;-62
2021/09/27 08:21:13;;;;;;;23.13;10.23;;;;;;;19.87;100.00;100849.63;4992229;28;20395;-61
2021/09/27 08:23:39;;;;;;;24.35;10.05;;;;;;;19.88;100.00;100862.09;4993298;28;20081;-62
2021/09/27 08:26:06;;;;;;;19.35;9.10;;;;;;;19.89;100.00;100860.94;4991066;28;20053;-63
2021/09/27 08:28:33;;;;;;;18.50;9.07;;;;;;;19.90;100.00;100854.28;4973924;28;20546;-62
2021/09/27 08:31:03;;;;;;;19.08;8.45;;;;;;;19.91;100.00;100849.59;4992210;28;20045;-62
2021/09/27 08:33:30;;;;;;;21.38;9.82;;;;;;;19.92;100.00;100851.16;4992145;28;20060;-62
2021/09/27 08:35:57;;;;;;;19.23;8.40;;;;;;;19.91;100.00;100855.84;4983387;28;20030;-62
2021/09/27 08:38:25;;;;;;;16.42;8.07;;;;;;;19.92;100.00;100857.38;4992133;28;20042;-62
2021/09/27 08:40:57;;;;;;;22.23;9.13;;;;;;;19.94;100.00;100848.78;4992460;28;20046;-62
2021/09/27 08:43:32;;;;;;;20.27;8.95;;;;;;;19.88;100.00;100844.94;4992655;28;20034;-62
2021/09/27 08:46:24;;;;;;;19.33;9.30;;;;;;;19.90;100.00;100854.28;4989951;28;20062;-61
2021/09/27 08:49:01;;;;;;;17.90;8.15;;;;;;;19.93;100.00;100858.94;4979946;28;20057;-62
2021/09/27 08:51:29;;;;;;;17.70;8.30;;;;;;;19.89;100.00;100855.47;4992356;28;20068;-62
2021/09/27 08:53:55;;;;;;;18.23;8.40;;;;;;;19.95;100.00;100862.03;4989286;28;20403;-64
2021/09/27 08:56:38;;;;;;;18.75;9.15;;;;;;;20.00;100.00;100858.03;4992533;28;20041;-61
2021/09/27 08:59:22;;;;;;;19.95;9.02;;;;;;;20.01;100.00;100857.63;4992863;28;20062;-63
2021/09/27 09:02:19;;;;;;;19.60;9.38;;;;;;;19.98;100.00;100858.44;4991735;28;20042;-62
2021/09/27 09:05:03;;;;;;;22.20;9.57;;;;;;;20.04;100.00;100859.53;4988491;28;20046;-62
2021/09/27 09:07:29;;;;;;;19.17;9.00;;;;;;;20.07;100.00;100866.16;4988979;28;20064;-62
2021/09/27 09:10:04;;;;;;;20.20;8.95;;;;;;;20.07;100.00;100861.47;4991759;28;20039;-62
2021/09/27 09:12:51;;;;;;;19.35;8.88;;;;;;;20.09;100.00;100859.06;4988789;28;20061;-63
2021/09/27 09:15:24;;;;;;;20.00;9.02;;;;;;;20.15;100.00;100867.59;4992330;28;20037;-62
2021/09/27 09:17:59;;;;;;;19.83;8.63;;;;;;;20.18;100.00;100872.22;4989708;28;20442;-62
2021/09/27 09:20:36;;;;;;;22.98;9.65;;;;;;;20.21;100.00;100864.00;4974275;28;20434;-62
2021/09/27 09:23:02;;;;;;;25.13;9.70;;;;;;;20.20;100.00;100867.16;4991091;28;20042;-62
2021/09/27 09:25:39;;;;;;;27.17;9.45;;;;;;;20.17;100.00;100863.25;4992087;28;20112;-62
2021/09/27 09:28:08;;;;;;;22.75;9.20;;;;;;;20.25;100.00;100853.75;4985704;28;20033;-63
2021/09/27 09:30:53;;;;;;;25.80;10.05;;;;;;;20.31;100.00;100863.03;4984962;28;20041;-61
2021/09/27 09:33:43;;;;;;;26.67;9.60;;;;;;;20.24;100.00;100856.91;4988021;28;20045;-62
2021/09/27 09:36:15;;;;;;;21.90;9.43;;;;;;;20.35;100.00;100863.00;4992065;28;20053;-62
2021/09/27 09:38:43;;;;;;;23.00;9.60;;;;;;;20.39;100.00;100861.75;4991663;28;20069;-63
2021/09/27 09:41:09;;;;;;;23.25;9.88;;;;;;;20.39;100.00;100864.50;4987969;28;20040;-63
2021/09/27 09:43:41;;;;;;;24.05;9.25;;;;;;;20.40;100.00;100863.28;4991350;28;20034;-62
2021/09/27 09:46:28;;;;;;;24.60;9.82;;;;;;;20.40;100.00;100857.81;4991925;28;20124;-63
2021/09/27 09:49:06;;;;;;;22.08;9.75;;;;;;;20.48;100.00;100864.72;4988752;28;20418;-62
2021/09/27 09:51:40;;;;;;;20.73;8.77;;;;;;;20.61;100.00;100859.44;4990521;28;20030;-63
2021/09/27 09:54:14;;;;;;;23.55;9.98;;;;;;;20.76;100.00;100866.19;4987865;28;20038;-63
2021/09/27 09:56:46;;;;;;;21.48;10.05;;;;;;;20.93;100.00;100862.34;4990915;28;20164;-62
2021/09/27 09:59:29;;;;;;;20.17;8.20;;;;;;;21.01;100.00;100850.09;4989656;28;20396;-62
2021/09/27 10:01:58;;;;;;;19.77;9.00;;;;;;;21.10;100.00;100847.56;4990914;28;20053;-63
2021/09/27 10:04:38;;;;;;;19.73;9.13;;;;;;;21.14;100.00;100840.06;4984647;28;20049;-63
2021/09/27 10:07:22;;;;;;;20.65;8.35;;;;;;;21.20;100.00;100846.59;4989845;28;20038;-62
2021/09/27 10:09:58;;;;;;;19.95;8.55;;;;;;;21.33;100.00;100833.78;4987716;28;20038;-64
2021/09/27 10:12:40;;;;;;;19.80;9.05;;;;;;;21.43;100.00;100843.75;4990357;28;20107;-63
2021/09/27 10:15:07;;;;;;;19.60;9.23;;;;;;;21.51;100.00;100841.63;4987814;28;20062;-63
2021/09/27 10:17:38;;;;;;;19.60;9.00;;;;;;;21.58;100.00;100842.25;4989326;28;20034;-63
2021/09/27 10:20:20;;;;;;;19.58;8.57;;;;;;;21.59;100.00;100834.81;4990165;28;20035;-62
2021/09/27 10:22:57;;;;;;;17.38;7.80;;;;;;;21.58;100.00;100825.06;4987426;28;20432;-62
2021/09/27 10:25:29;;;;;;;16.58;8.45;;;;;;;21.62;100.00;100824.97;4990481;28;20494;-63
2021/09/27 10:27:55;;;;;;;18.55;8.15;;;;;;;21.65;100.00;100832.34;4988488;28;20030;-63
2021/09/27 10:30:24;;;;;;;18.02;7.80;;;;;;;21.67;100.00;100838.16;4990381;28;20023;-63
2021/09/27 10:32:54;;;;;;;19.15;8.13;;;;;;;21.63;100.00;100832.00;4990273;28;20430;-62
2021/09/27 10:35:48;;;;;;;16.58;8.20;;;;;;;21.76;100.00;100830.13;4987873;28;20441;-64
2021/09/27 10:38:20;;;;;;;17.85;8.23;;;;;;;21.86;100.00;100837.38;4962130;28;20050;-64
2021/09/27 10:40:50;;;;;;;17.42;8.30;;;;;;;22.00;100.00;100837.81;4990304;28;20402;-63
2021/09/27 10:43:22;;;;;;;18.58;8.07;;;;;;;22.04;100.00;100837.75;4985757;28;20402;-63
2021/09/27 10:45:54;;;;;;;18.83;7.88;;;;;;;22.05;100.00;100825.53;4984352;28;20089;-64
2021/09/27 10:48:21;;;;;;;17.27;7.80;;;;;;;22.07;100.00;100823.94;4984213;28;20030;-64
2021/09/27 10:50:56;;;;;;;20.88;7.90;;;;;;;22.18;100.00;100831.91;4989896;28;20018;-64
2021/09/27 10:53:33;;;;;;;21.98;8.93;;;;;;;22.23;100.00;100826.69;4986503;28;20060;-64
2021/09/27 10:56:35;;;;;;;17.10;8.13;;;;;;;22.16;100.00;100823.34;4989385;28;20030;-64
2021/09/27 10:59:04;;;;;;;16.60;6.80;;;;;;;22.16;100.00;100828.81;4989965;28;20448;-64
2021/09/27 11:01:51;;;;;;;20.58;8.05;;;;;;;22.20;100.00;100813.78;4980222;28;20041;-64
2021/09/27 11:04:23;;;;;;;17.17;7.82;;;;;;;22.15;100.00;100817.06;4981896;28;20034;-64
2021/09/27 11:06:55;;;;;;;17.95;8.25;;;;;;;22.18;100.00;100809.97;4990429;28;20042;-64
2021/09/27 11:09:29;;;;;;;14.30;7.10;;;;;;;22.28;100.00;100803.41;4986148;28;20161;-63
2021/09/27 11:12:19;;;;;;;14.10;7.18;;;;;;;22.40;100.00;100814.47;4988254;28;20121;-64
2021/09/27 11:14:48;;;;;;;16.85;7.30;;;;;;;22.61;100.00;100810.41;4987032;28;20038;-63
2021/09/27 11:17:47;;;;;;;14.73;7.43;;;;;;;22.69;100.00;100808.25;4981278;28;20066;-64
2021/09/27 11:20:16;;;;;;;18.58;8.30;;;;;;;22.71;100.00;100808.59;4982489;28;20399;-63
2021/09/27 11:22:56;;;;;;;17.58;8.18;;;;;;;22.71;100.00;100809.38;4989342;28;20046;-64
2021/09/27 11:25:21;;;;;;;14.25;7.25;;;;;;;22.76;100.00;100811.59;4987656;28;20039;-63
2021/09/27 11:28:26;;;;;;;14.10;7.43;;;;;;;22.72;100.00;100810.94;4990237;28;20106;-62
2021/09/27 11:30:58;;;;;;;16.02;7.43;;;;;;;22.84;100.00;100812.94;4989158;28;20038;-63
2021/09/27 11:33:26;;;;;;;17.25;7.93;;;;;;;22.82;100.00;100801.59;4981231;28;20419;-64
2021/09/27 11:35:56;;;;;;;14.35;7.38;;;;;;;22.77;100.00;100796.66;4987469;28;20026;-62
2021/09/27 11:38:40;;;;;;;14.38;7.38;;;;;;;22.70;100.00;100805.09;4990020;28;20032;-62
2021/09/27 11:41:11;;;;;;;18.02;7.75;;;;;;;22.63;100.00;100797.03;4987340;28;20022;-64
2021/09/27 11:44:05;;;;;;;16.35;7.47;;;;;;;22.50;100.00;100796.19;4989531;28;20044;-63
2021/09/27 11:47:06;;;;;;;14.82;7.43;;;;;;;22.48;100.00;100795.06;4990637;28;20038;-62
2021/09/27 11:50:10;;;;;;;13.65;7.30;;;;;;;22.47;100.00;100793.53;4990456;28;20033;-63
2021/09/27 11:52:41;;;;;;;14.85;7.45;;;;;;;22.57;100.00;100796.00;4993033;28;20034;-64